createdAt,value
2024-05-09T00:00:15.515Z,92.40
2024-05-09T00:01:10.588Z,92.44
2024-05-09T00:02:09.560Z,92.62
2024-05-09T00:03:10.839Z,92.57
2024-05-09T00:04:09.505Z,92.61
2024-05-09T00:05:09.619Z,93.08
2024-05-09T00:06:09.730Z,93.03
2024-05-09T00:07:09.508Z,92.32
2024-05-09T00:08:09.751Z,93.02
2024-05-09T00:09:09.479Z,92.28
2024-05-09T00:10:17.801Z,90.77
2024-05-09T00:11:10.538Z,90.83
2024-05-09T00:12:09.548Z,91.23
2024-05-09T00:13:10.008Z,90.96
2024-05-09T00:14:09.392Z,91.79
2024-05-09T00:15:09.331Z,92.93
2024-05-09T00:16:09.323Z,91.82
2024-05-09T00:17:09.335Z,90.81
2024-05-09T00:18:09.541Z,91.35
2024-05-09T00:19:09.292Z,90.98
2024-05-09T00:20:17.478Z,92.42
2024-05-09T00:21:10.224Z,92.44
2024-05-09T00:22:09.179Z,92.27
2024-05-09T00:23:09.557Z,91.99
2024-05-09T00:24:09.123Z,91.77
2024-05-09T00:25:09.101Z,92.42
2024-05-09T00:26:09.198Z,91.47
2024-05-09T00:27:11.350Z,92.62
2024-05-09T00:28:09.061Z,92.65
2024-05-09T00:29:09.099Z,92.07
2024-05-09T00:30:14.287Z,90.96
2024-05-09T00:31:09.968Z,92.64
2024-05-09T00:32:09.026Z,91.90
2024-05-09T00:33:10.397Z,92.83
2024-05-09T00:34:09.067Z,92.27
2024-05-09T00:35:09.047Z,92.17
2024-05-09T00:36:08.918Z,91.77
2024-05-09T00:37:08.896Z,91.55
2024-05-09T00:38:08.945Z,91.26
2024-05-09T00:39:08.832Z,91.89
2024-05-09T00:40:15.355Z,91.34
2024-05-09T00:41:09.889Z,91.82
2024-05-09T00:42:08.755Z,91.85
2024-05-09T00:43:08.767Z,91.89
2024-05-09T00:44:08.708Z,91.84
2024-05-09T00:45:08.688Z,91.59
2024-05-09T00:46:08.650Z,91.13
2024-05-09T00:47:08.716Z,90.97
2024-05-09T00:48:09.864Z,91.32
2024-05-09T00:49:08.627Z,91.01
2024-05-09T00:50:12.894Z,90.89
2024-05-09T00:51:09.521Z,90.94
2024-05-09T00:52:08.514Z,90.98
2024-05-09T00:53:08.511Z,90.47
2024-05-09T00:54:08.458Z,90.71
2024-05-09T00:55:08.449Z,91.01
2024-05-09T00:56:08.443Z,90.83
2024-05-09T00:57:08.389Z,89.31
2024-05-09T00:58:08.373Z,89.52
2024-05-09T00:59:08.352Z,90.86
2024-05-09T01:00:22.118Z,90.63
2024-05-09T01:01:09.338Z,90.64
2024-05-09T01:02:08.339Z,90.69
2024-05-09T01:03:09.703Z,90.81
2024-05-09T01:04:08.317Z,90.70
2024-05-09T01:05:08.232Z,91.03
2024-05-09T01:06:08.170Z,91.13
2024-05-09T01:07:08.150Z,90.86
2024-05-09T01:08:08.522Z,91.47
2024-05-09T01:09:08.095Z,90.39
2024-05-09T01:10:14.099Z,90.42
2024-05-09T01:11:09.139Z,90.50
2024-05-09T01:12:08.154Z,90.53
2024-05-09T01:13:07.993Z,90.81
2024-05-09T01:14:08.020Z,90.72
2024-05-09T01:15:07.946Z,91.04
2024-05-09T01:16:07.924Z,91.15
2024-05-09T01:17:07.971Z,91.08
2024-05-09T01:18:08.119Z,90.70
2024-05-09T01:19:07.968Z,90.14
2024-05-09T01:20:10.879Z,89.71
2024-05-09T01:21:08.835Z,89.74
2024-05-09T01:22:07.774Z,89.68
2024-05-09T01:23:07.876Z,89.71
2024-05-09T01:24:07.725Z,90.52
2024-05-09T01:25:07.685Z,89.09
2024-05-09T01:26:07.708Z,90.07
2024-05-09T01:27:07.645Z,90.31
2024-05-09T01:28:07.699Z,90.90
2024-05-09T01:29:07.631Z,90.21
2024-05-09T01:30:09.662Z,88.94
2024-05-09T01:31:08.521Z,88.98
2024-05-09T01:32:07.562Z,89.12
2024-05-09T01:33:09.468Z,89.70
2024-05-09T01:34:07.496Z,89.01
2024-05-09T01:35:07.415Z,89.20
2024-05-09T01:36:07.370Z,89.33
2024-05-09T01:37:07.354Z,89.74
2024-05-09T01:38:07.425Z,90.47
2024-05-09T01:39:07.284Z,88.66
2024-05-09T01:40:12.040Z,89.84
2024-05-09T01:41:08.256Z,89.93
2024-05-09T01:42:07.205Z,89.94
2024-05-09T01:43:07.480Z,90.24
2024-05-09T01:44:07.186Z,90.65
2024-05-09T01:45:07.123Z,91.05
2024-05-09T01:46:07.101Z,91.00
2024-05-09T01:47:07.151Z,91.35
2024-05-09T01:48:07.310Z,90.86
2024-05-09T01:49:07.371Z,89.99
2024-05-09T01:50:10.676Z,90.64
2024-05-09T01:51:06.970Z,90.67
2024-05-09T01:52:06.929Z,90.69
2024-05-09T01:53:06.942Z,90.02
2024-05-09T01:54:06.863Z,89.36
2024-05-09T01:55:07.068Z,90.54
2024-05-09T01:56:06.854Z,90.20
2024-05-09T01:57:06.784Z,89.06
2024-05-09T01:58:06.772Z,90.51
2024-05-09T01:59:06.846Z,89.01
2024-05-09T02:00:07.938Z,90.48
2024-05-09T02:01:06.714Z,89.63
2024-05-09T02:02:06.806Z,90.02
2024-05-09T02:03:06.794Z,89.17
2024-05-09T02:04:07.039Z,89.55
2024-05-09T02:05:06.837Z,88.53
2024-05-09T02:06:06.801Z,89.33
2024-05-09T02:07:06.586Z,88.97
2024-05-09T02:08:06.564Z,90.56
2024-05-09T02:09:06.475Z,89.85
2024-05-09T02:10:13.659Z,89.80
2024-05-09T02:11:07.495Z,89.83
2024-05-09T02:12:06.568Z,89.27
2024-05-09T02:13:06.361Z,89.83
2024-05-09T02:14:06.422Z,90.04
2024-05-09T02:15:06.322Z,90.29
2024-05-09T02:16:06.316Z,90.25
2024-05-09T02:17:06.282Z,89.77
2024-05-09T02:18:06.458Z,90.14
2024-05-09T02:19:06.403Z,90.37
2024-05-09T02:20:06.575Z,88.47
2024-05-09T02:21:06.265Z,89.25
2024-05-09T02:22:06.158Z,88.67
2024-05-09T02:23:06.752Z,89.25
2024-05-09T02:24:06.106Z,88.92
2024-05-09T02:25:06.073Z,87.64
2024-05-09T02:26:06.108Z,88.82
2024-05-09T02:27:06.125Z,88.70
2024-05-09T02:28:05.995Z,89.52
2024-05-09T02:29:06.000Z,89.29
2024-05-09T02:30:12.298Z,88.01
2024-05-09T02:31:06.916Z,88.08
2024-05-09T02:32:05.945Z,88.11
2024-05-09T02:33:06.122Z,88.44
2024-05-09T02:34:06.038Z,89.16
2024-05-09T02:35:05.866Z,88.10
2024-05-09T02:36:05.828Z,90.17
2024-05-09T02:37:05.874Z,89.24
2024-05-09T02:38:05.871Z,90.06
2024-05-09T02:39:05.733Z,89.86
2024-05-09T02:40:07.102Z,89.87
2024-05-09T02:41:05.748Z,90.13
2024-05-09T02:42:05.671Z,90.41
2024-05-09T02:43:05.926Z,90.10
2024-05-09T02:44:05.622Z,89.75
2024-05-09T02:45:05.581Z,89.66
2024-05-09T02:46:05.554Z,89.29
2024-05-09T02:47:05.626Z,90.16
2024-05-09T02:48:05.729Z,89.22
2024-05-09T02:49:05.595Z,89.29
2024-05-09T02:50:07.791Z,89.30
2024-05-09T02:51:05.857Z,89.53
2024-05-09T02:52:05.567Z,89.23
2024-05-09T02:53:05.776Z,89.78
2024-05-09T02:54:05.549Z,87.70
2024-05-09T02:55:05.524Z,88.57
2024-05-09T02:56:05.610Z,87.15
2024-05-09T02:57:05.531Z,88.44
2024-05-09T02:58:05.476Z,89.03
2024-05-09T02:59:05.482Z,87.65
2024-05-09T03:00:07.673Z,86.99
2024-05-09T03:01:05.491Z,87.01
2024-05-09T03:02:05.494Z,87.64
2024-05-09T03:03:05.527Z,87.25
2024-05-09T03:04:05.499Z,88.09
2024-05-09T03:05:05.380Z,88.12
2024-05-09T03:06:05.349Z,87.68
2024-05-09T03:07:05.320Z,88.24
2024-05-09T03:08:05.360Z,87.31
2024-05-09T03:09:05.241Z,87.38
2024-05-09T03:10:11.872Z,87.44
2024-05-09T03:11:06.285Z,87.48
2024-05-09T03:12:05.231Z,86.87
2024-05-09T03:13:05.141Z,87.09
2024-05-09T03:14:05.222Z,87.56
2024-05-09T03:15:05.079Z,86.22
2024-05-09T03:16:05.056Z,87.11
2024-05-09T03:17:05.059Z,86.87
2024-05-09T03:18:05.315Z,86.35
2024-05-09T03:19:05.083Z,86.43
2024-05-09T03:20:06.998Z,86.39
2024-05-09T03:21:05.038Z,86.45
2024-05-09T03:22:04.887Z,85.01
2024-05-09T03:23:05.473Z,85.90
2024-05-09T03:24:04.827Z,86.99
2024-05-09T03:25:04.798Z,86.53
2024-05-09T03:26:04.841Z,86.55
2024-05-09T03:27:04.765Z,86.61
2024-05-09T03:28:04.752Z,86.76
2024-05-09T03:29:04.898Z,85.88
2024-05-09T03:30:07.319Z,87.12
2024-05-09T03:31:04.644Z,87.28
2024-05-09T03:32:04.738Z,87.70
2024-05-09T03:33:04.845Z,87.13
2024-05-09T03:34:04.880Z,85.22
2024-05-09T03:35:04.594Z,85.63
2024-05-09T03:36:06.198Z,86.66
2024-05-09T03:37:04.513Z,85.79
2024-05-09T03:38:04.563Z,86.79
2024-05-09T03:39:04.432Z,86.92
2024-05-09T03:40:07.341Z,86.05
2024-05-09T03:41:05.445Z,86.71
2024-05-09T03:42:04.346Z,86.81
2024-05-09T03:43:04.330Z,86.91
2024-05-09T03:44:04.309Z,87.08
2024-05-09T03:45:04.270Z,87.62
2024-05-09T03:46:04.236Z,86.20
2024-05-09T03:47:04.366Z,86.35
2024-05-09T03:48:04.407Z,86.62
2024-05-09T03:49:04.287Z,86.59
2024-05-09T03:50:05.582Z,86.13
2024-05-09T03:51:04.236Z,85.61
2024-05-09T03:52:04.077Z,86.47
2024-05-09T03:53:04.239Z,86.26
2024-05-09T03:54:04.023Z,85.57
2024-05-09T03:55:04.001Z,84.66
2024-05-09T03:56:04.036Z,85.88
2024-05-09T03:57:03.939Z,85.37
2024-05-09T03:58:03.917Z,85.45
2024-05-09T03:59:04.009Z,85.53
2024-05-09T04:00:05.509Z,85.83
2024-05-09T04:01:03.836Z,86.36
2024-05-09T04:02:03.926Z,87.06
2024-05-09T04:03:04.152Z,87.22
2024-05-09T04:04:03.768Z,87.18
2024-05-09T04:05:03.782Z,86.64
2024-05-09T04:06:03.680Z,85.03
2024-05-09T04:07:03.653Z,84.86
2024-05-09T04:08:03.691Z,84.92
2024-05-09T04:09:03.598Z,85.37
2024-05-09T04:10:05.264Z,85.69
2024-05-09T04:11:03.768Z,85.95
2024-05-09T04:12:03.635Z,86.29
2024-05-09T04:13:04.201Z,86.23
2024-05-09T04:14:03.526Z,86.00
2024-05-09T04:15:03.417Z,85.48
2024-05-09T04:16:03.405Z,84.86
2024-05-09T04:17:03.409Z,84.59
2024-05-09T04:18:03.525Z,85.22
2024-05-09T04:19:03.501Z,84.86
2024-05-09T04:20:03.318Z,85.68
2024-05-09T04:21:03.331Z,85.48
2024-05-09T04:22:03.224Z,84.90
2024-05-09T04:23:03.258Z,85.38
2024-05-09T04:24:03.171Z,85.96
2024-05-09T04:25:03.131Z,85.52
2024-05-09T04:26:03.147Z,83.78
2024-05-09T04:27:03.096Z,85.73
2024-05-09T04:28:03.073Z,85.37
2024-05-09T04:29:03.056Z,84.35
2024-05-09T04:30:18.535Z,50.00
2024-05-09T04:31:22.476Z,50.00
2024-05-09T04:32:22.535Z,50.00
2024-05-09T04:33:22.743Z,50.00
2024-05-09T04:34:22.682Z,50.00
2024-05-09T04:35:22.533Z,50.00
2024-05-09T04:36:22.465Z,50.55
2024-05-09T04:37:22.473Z,52.44
2024-05-09T04:38:22.509Z,50.78
2024-05-09T04:39:22.496Z,52.14
2024-05-09T04:40:28.623Z,51.32
2024-05-09T04:41:23.627Z,51.37
2024-05-09T04:42:22.500Z,51.59
2024-05-09T04:43:22.505Z,51.38
2024-05-09T04:44:22.571Z,47.75
2024-05-09T04:45:22.516Z,48.35
2024-05-09T04:46:22.539Z,50.26
2024-05-09T04:47:22.655Z,53.00
2024-05-09T04:48:22.684Z,51.61
2024-05-09T04:49:22.610Z,51.73
2024-05-09T04:50:30.150Z,51.36
2024-05-09T04:51:23.628Z,51.44
2024-05-09T04:52:22.624Z,51.74
2024-05-09T04:53:22.698Z,51.99
2024-05-09T04:54:33.446Z,52.64
2024-05-09T04:55:23.643Z,51.43
2024-05-09T04:56:22.702Z,51.53
2024-05-09T04:57:22.687Z,51.67
2024-05-09T04:58:22.679Z,51.67
2024-05-09T04:59:22.716Z,50.14
2024-05-09T05:00:31.890Z,50.91
2024-05-09T05:01:23.806Z,50.98
2024-05-09T05:02:22.841Z,51.15
2024-05-09T05:03:23.081Z,50.20
2024-05-09T05:04:22.782Z,50.99
2024-05-09T05:05:22.790Z,50.49
2024-05-09T05:06:22.775Z,52.51
2024-05-09T05:07:22.810Z,52.43
2024-05-09T05:08:22.826Z,52.96
2024-05-09T05:09:22.818Z,52.42
2024-05-09T05:10:32.898Z,53.38
2024-05-09T05:11:23.964Z,53.33
2024-05-09T05:12:22.954Z,53.39
2024-05-09T05:13:23.944Z,53.22
2024-05-09T05:14:22.975Z,53.49
2024-05-09T05:15:22.902Z,53.25
2024-05-09T05:16:22.884Z,51.53
2024-05-09T05:17:23.083Z,51.49
2024-05-09T05:18:23.095Z,51.03
2024-05-09T05:19:22.989Z,50.00
2024-05-09T05:20:30.428Z,50.79
2024-05-09T05:21:24.078Z,50.91
2024-05-09T05:22:22.965Z,50.55
2024-05-09T05:23:23.261Z,50.80
2024-05-09T05:24:22.972Z,49.89
2024-05-09T05:25:22.984Z,48.71
2024-05-09T05:26:23.036Z,52.50
2024-05-09T05:27:23.019Z,50.00
2024-05-09T05:28:23.142Z,51.19
2024-05-09T05:29:23.094Z,51.28
2024-05-09T05:30:28.979Z,52.32
2024-05-09T05:31:24.083Z,51.33
2024-05-09T05:32:23.200Z,51.47
2024-05-09T05:33:23.602Z,51.94
2024-05-09T05:34:23.119Z,49.32
2024-05-09T05:35:23.274Z,50.33
2024-05-09T05:36:23.152Z,52.32
2024-05-09T05:37:23.161Z,50.21
2024-05-09T05:38:27.243Z,50.35
2024-05-09T05:39:24.186Z,50.49
2024-05-09T05:40:32.159Z,50.80
2024-05-09T05:41:24.249Z,50.48
2024-05-09T05:42:23.214Z,50.90
2024-05-09T05:43:23.219Z,51.24
2024-05-09T05:44:23.283Z,50.41
2024-05-09T05:45:23.256Z,50.90
2024-05-09T05:46:23.279Z,50.82
2024-05-09T05:47:23.396Z,50.85
2024-05-09T05:48:23.617Z,49.27
2024-05-09T05:49:23.548Z,51.66
2024-05-09T05:50:28.075Z,51.21
2024-05-09T05:51:24.402Z,51.28
2024-05-09T05:52:23.398Z,50.82
2024-05-09T05:53:23.464Z,51.45
2024-05-09T05:54:23.422Z,51.61
2024-05-09T05:55:23.443Z,50.70
2024-05-09T05:56:23.512Z,50.04
2024-05-09T05:57:23.465Z,52.32
2024-05-09T05:58:23.522Z,53.52
2024-05-09T05:59:23.524Z,52.80
2024-05-09T06:00:29.949Z,52.28
2024-05-09T06:01:24.561Z,52.38
2024-05-09T06:02:23.672Z,52.54
2024-05-09T06:03:23.609Z,52.23
2024-05-09T06:04:23.560Z,51.68
2024-05-09T06:06:23.583Z,49.93
2024-05-09T06:07:23.587Z,52.78
2024-05-09T06:08:24.701Z,53.02
2024-05-09T06:09:23.615Z,51.80
2024-05-09T06:10:26.450Z,51.33
2024-05-09T06:11:24.746Z,51.44
2024-05-09T06:12:23.742Z,51.61
2024-05-09T06:13:23.674Z,52.15
2024-05-09T06:14:23.696Z,52.73
2024-05-09T06:15:23.679Z,52.25
2024-05-09T06:16:23.702Z,51.12
2024-05-09T06:17:23.849Z,51.90
2024-05-09T06:18:23.983Z,52.09
2024-05-09T06:19:24.000Z,50.05
2024-05-09T06:20:31.953Z,50.00
2024-05-09T06:21:24.857Z,50.07
2024-05-09T06:22:23.775Z,50.25
2024-05-09T06:23:23.781Z,47.96
2024-05-09T06:24:23.773Z,44.32
2024-05-09T06:25:23.782Z,46.73
2024-05-09T06:26:23.811Z,51.91
2024-05-09T06:27:23.797Z,50.00
2024-05-09T06:28:23.822Z,52.00
2024-05-09T06:29:23.935Z,51.33
2024-05-09T06:30:30.561Z,51.86
2024-05-09T06:31:24.916Z,51.94
2024-05-09T06:32:24.005Z,51.08
2024-05-09T06:33:24.139Z,51.92
2024-05-09T06:34:24.007Z,51.10
2024-05-09T06:35:23.996Z,48.26
2024-05-09T06:36:23.999Z,51.92
2024-05-09T06:37:23.979Z,52.42
2024-05-09T06:38:24.026Z,51.51
2024-05-09T06:39:24.010Z,51.60
2024-05-09T06:40:29.273Z,51.35
2024-05-09T06:41:25.080Z,51.50
2024-05-09T06:42:24.019Z,51.80
2024-05-09T06:43:24.034Z,51.78
2024-05-09T06:44:24.164Z,51.46
2024-05-09T06:45:24.087Z,48.89
2024-05-09T06:46:24.070Z,50.51
2024-05-09T06:47:24.378Z,50.68
2024-05-09T06:48:24.251Z,51.45
2024-05-09T06:49:24.273Z,50.00
2024-05-09T06:50:28.019Z,53.84
2024-05-09T06:51:25.177Z,53.94
2024-05-09T06:52:24.149Z,54.09
2024-05-09T06:53:24.331Z,53.88
2024-05-09T06:54:24.159Z,53.92
2024-05-09T06:55:24.185Z,51.97
2024-05-09T06:56:24.301Z,53.61
2024-05-09T06:57:24.198Z,52.94
2024-05-09T06:58:24.206Z,51.89
2024-05-09T06:59:24.282Z,52.90
2024-05-09T07:00:30.848Z,52.29
2024-05-09T07:01:25.320Z,52.39
2024-05-09T07:02:24.393Z,52.31
2024-05-09T07:03:24.425Z,51.67
2024-05-09T07:04:24.398Z,50.97
2024-05-09T07:05:24.472Z,52.29
2024-05-09T07:06:24.311Z,54.39
2024-05-09T07:07:24.291Z,52.17
2024-05-09T07:08:24.376Z,51.42
2024-05-09T07:09:24.319Z,51.59
2024-05-09T07:10:29.167Z,51.68
2024-05-09T07:11:25.444Z,51.71
2024-05-09T07:12:24.631Z,51.32
2024-05-09T07:13:24.348Z,52.37
2024-05-09T07:14:24.435Z,51.70
2024-05-09T07:15:24.411Z,50.80
2024-05-09T07:16:24.483Z,53.99
2024-05-09T07:17:24.550Z,52.26
2024-05-09T07:18:24.545Z,51.44
2024-05-09T07:19:24.732Z,51.38
2024-05-09T07:20:32.374Z,54.18
2024-05-09T07:21:25.468Z,52.45
2024-05-09T07:22:24.419Z,52.48
2024-05-09T07:23:24.584Z,52.39
2024-05-09T07:24:24.454Z,50.66
2024-05-09T07:25:24.437Z,51.84
2024-05-09T07:26:24.478Z,54.83
2024-05-09T07:27:24.460Z,56.89
2024-05-09T07:28:24.474Z,55.89
2024-05-09T07:29:24.493Z,57.20
2024-05-09T07:30:32.502Z,55.15
2024-05-09T07:31:25.446Z,55.25
2024-05-09T07:32:24.642Z,54.28
2024-05-09T07:33:24.963Z,53.77
2024-05-09T07:34:24.487Z,54.20
2024-05-09T07:35:24.525Z,50.92
2024-05-09T07:36:24.500Z,52.46
2024-05-09T07:37:24.459Z,52.92
2024-05-09T07:38:24.579Z,51.96
2024-05-09T07:39:24.480Z,53.57
2024-05-09T07:40:32.487Z,53.28
2024-05-09T07:41:25.496Z,53.29
2024-05-09T07:42:24.533Z,53.89
2024-05-09T07:43:24.497Z,54.36
2024-05-09T07:44:24.599Z,53.70
2024-05-09T07:45:43.013Z,55.42
2024-05-09T07:47:20.382Z,53.41
2024-05-09T07:48:56.933Z,53.41
2024-05-09T07:50:00.927Z,53.65
2024-05-09T07:54:24.872Z,53.70
2024-05-09T07:55:24.768Z,54.55
2024-05-09T07:56:25.720Z,53.53
2024-05-09T07:57:24.663Z,56.42
2024-05-09T07:58:24.581Z,55.43
2024-05-09T07:59:24.603Z,56.14
2024-05-09T08:00:31.004Z,52.71
2024-05-09T08:01:26.056Z,52.91
2024-05-09T08:02:24.849Z,53.04
2024-05-09T08:03:24.752Z,53.51
2024-05-09T08:04:26.559Z,54.08
2024-05-09T08:05:24.696Z,53.50
2024-05-09T08:06:24.687Z,51.81
2024-05-09T08:07:24.678Z,54.73
2024-05-09T08:08:24.634Z,52.64
2024-05-09T08:09:24.632Z,54.96
2024-05-09T08:10:28.431Z,53.67
2024-05-09T08:11:24.746Z,53.68
2024-05-09T08:12:24.648Z,53.92
2024-05-09T08:13:24.705Z,54.03
2024-05-09T08:14:24.733Z,50.58
2024-05-09T08:15:24.661Z,54.75
2024-05-09T08:16:24.773Z,50.60
2024-05-09T08:17:24.838Z,54.22
2024-05-09T08:18:24.844Z,55.15
2024-05-09T08:19:24.727Z,55.39
2024-05-09T08:20:31.019Z,55.03
2024-05-09T08:21:25.666Z,55.13
2024-05-09T08:22:24.668Z,55.28
2024-05-09T08:23:24.682Z,52.43
2024-05-09T08:24:24.710Z,53.48
2024-05-09T08:25:24.750Z,55.83
2024-05-09T08:26:24.707Z,50.00
2024-05-09T08:27:24.679Z,56.33
2024-05-09T08:28:24.782Z,56.39
2024-05-09T08:29:24.675Z,53.79
2024-05-09T08:30:32.535Z,54.08
2024-05-09T08:31:25.839Z,54.08
2024-05-09T08:32:24.807Z,50.84
2024-05-09T08:33:24.791Z,49.53
2024-05-09T08:34:24.792Z,50.92
2024-05-09T08:35:24.705Z,51.61
2024-05-09T08:36:24.679Z,59.73
2024-05-09T08:37:27.859Z,53.58
2024-05-09T08:38:25.690Z,53.82
2024-05-09T08:39:24.684Z,50.54
2024-05-09T08:40:31.074Z,50.50
2024-05-09T08:41:25.686Z,50.25
2024-05-09T08:42:24.691Z,54.40
2024-05-09T08:43:24.754Z,53.58
2024-05-09T08:44:24.725Z,52.60
2024-05-09T08:45:24.701Z,47.52
2024-05-09T08:46:24.829Z,50.62
2024-05-09T08:47:24.772Z,52.06
2024-05-09T08:48:24.921Z,54.26
2024-05-09T08:49:24.759Z,53.90
2024-05-09T08:50:32.283Z,53.92
2024-05-09T08:51:25.669Z,54.00
2024-05-09T08:52:24.671Z,52.79
2024-05-09T08:53:24.676Z,51.17
2024-05-09T08:54:24.676Z,46.26
2024-05-09T08:55:24.703Z,48.94
2024-05-09T08:56:24.647Z,55.00
2024-05-09T08:57:24.895Z,52.84
2024-05-09T08:58:24.794Z,55.89
2024-05-09T08:59:24.650Z,56.43
2024-05-09T09:00:33.784Z,54.98
2024-05-09T09:01:25.795Z,54.98
2024-05-09T09:02:24.856Z,55.20
2024-05-09T09:03:24.871Z,49.49
2024-05-09T09:04:24.759Z,55.09
2024-05-09T09:05:24.792Z,55.11
2024-05-09T09:06:24.626Z,50.00
2024-05-09T09:07:24.701Z,50.94
2024-05-09T09:08:24.722Z,54.22
2024-05-09T09:09:24.619Z,52.84
2024-05-09T09:10:30.053Z,52.79
2024-05-09T09:11:25.659Z,53.01
2024-05-09T09:12:24.606Z,53.08
2024-05-09T09:13:24.664Z,54.86
2024-05-09T09:14:24.609Z,53.12
2024-05-09T09:15:24.639Z,54.25
2024-05-09T09:16:24.823Z,54.01
2024-05-09T09:17:24.642Z,54.59
2024-05-09T09:18:24.621Z,50.00
2024-05-09T09:19:24.778Z,56.76
2024-05-09T09:20:29.539Z,59.85
2024-05-09T09:21:25.575Z,57.73
2024-05-09T09:22:24.608Z,57.61
2024-05-09T09:23:24.596Z,52.24
2024-05-09T09:24:24.587Z,59.01
2024-05-09T09:25:24.552Z,58.82
2024-05-09T09:26:24.566Z,53.86
2024-05-09T09:27:24.551Z,53.51
2024-05-09T09:28:24.558Z,54.26
2024-05-09T09:29:24.533Z,61.37
2024-05-09T09:30:34.630Z,54.03
2024-05-09T09:31:25.620Z,54.11
2024-05-09T09:32:24.566Z,54.86
2024-05-09T09:33:24.648Z,54.49
2024-05-09T09:34:24.733Z,54.50
2024-05-09T09:35:24.513Z,58.58
2024-05-09T09:36:24.521Z,57.06
2024-05-09T09:37:24.585Z,58.58
2024-05-09T09:38:24.515Z,58.29
2024-05-09T09:39:24.519Z,58.02
2024-05-09T09:40:31.064Z,58.09
2024-05-09T09:41:25.506Z,56.19
2024-05-09T09:42:24.481Z,58.77
2024-05-09T09:43:24.511Z,56.63
2024-05-09T09:44:24.491Z,58.11
2024-05-09T09:45:24.496Z,58.59
2024-05-09T09:46:24.620Z,56.24
2024-05-09T09:47:24.550Z,59.77
2024-05-09T09:48:24.522Z,57.57
2024-05-09T09:49:24.522Z,61.38
2024-05-09T09:50:31.764Z,58.47
2024-05-09T09:51:25.468Z,58.56
2024-05-09T09:52:24.570Z,58.56
2024-05-09T09:53:24.469Z,58.82
2024-05-09T09:54:24.444Z,58.71
2024-05-09T09:55:24.457Z,61.59
2024-05-09T09:56:24.427Z,56.91
2024-05-09T09:57:24.409Z,58.69
2024-05-09T09:58:24.532Z,58.51
2024-05-09T09:59:24.381Z,55.62
2024-05-09T10:00:30.503Z,57.97
2024-05-09T10:01:25.440Z,57.98
2024-05-09T10:02:24.554Z,57.94
2024-05-09T10:03:24.465Z,54.30
2024-05-09T10:04:24.418Z,56.00
2024-05-09T10:05:24.627Z,51.57
2024-05-09T10:06:24.350Z,56.22
2024-05-09T10:07:24.416Z,52.50
2024-05-09T10:08:24.366Z,50.00
2024-05-09T10:09:24.338Z,55.99
2024-05-09T10:11:24.350Z,52.78
2024-05-09T10:12:24.436Z,54.41
2024-05-09T10:13:24.464Z,54.28
2024-05-09T10:14:24.311Z,58.09
2024-05-09T10:15:24.327Z,58.42
2024-05-09T10:16:24.547Z,57.23
2024-05-09T10:17:24.359Z,56.02
2024-05-09T10:18:26.114Z,56.08
2024-05-09T10:19:24.440Z,55.51
2024-05-09T10:20:28.087Z,56.47
2024-05-09T10:21:25.298Z,56.08
2024-05-09T10:22:24.391Z,55.63
2024-05-09T10:23:24.329Z,55.00
2024-05-09T10:24:24.276Z,54.86
2024-05-09T10:25:24.565Z,54.39
2024-05-09T10:26:24.253Z,56.08
2024-05-09T10:27:24.256Z,54.80
2024-05-09T10:28:24.273Z,55.59
2024-05-09T10:29:24.230Z,53.60
2024-05-09T10:30:33.332Z,55.90
2024-05-09T10:31:25.241Z,56.09
2024-05-09T10:32:24.356Z,56.04
2024-05-09T10:33:24.269Z,57.59
2024-05-09T10:34:24.562Z,56.90
2024-05-09T10:35:24.229Z,58.50
2024-05-09T10:36:24.203Z,56.63
2024-05-09T10:37:24.322Z,55.83
2024-05-09T10:38:24.229Z,57.27
2024-05-09T10:39:24.199Z,55.05
2024-05-09T10:40:30.975Z,54.28
2024-05-09T10:41:25.207Z,54.44
2024-05-09T10:42:24.204Z,54.47
2024-05-09T10:43:24.242Z,55.04
2024-05-09T10:44:24.201Z,55.68
2024-05-09T10:45:24.168Z,56.11
2024-05-09T10:46:24.238Z,56.85
2024-05-09T10:48:24.342Z,57.42
2024-05-09T10:49:24.296Z,59.40
2024-05-09T10:50:28.747Z,57.76
2024-05-09T10:51:25.110Z,57.79
2024-05-09T10:52:24.187Z,57.92
2024-05-09T10:53:24.116Z,57.88
2024-05-09T10:54:24.127Z,56.72
2024-05-09T10:55:24.171Z,57.18
2024-05-09T10:56:24.099Z,56.15
2024-05-09T10:57:24.098Z,54.90
2024-05-09T10:58:24.144Z,55.67
2024-05-09T10:59:24.076Z,53.17
2024-05-09T11:00:33.059Z,53.17
2024-05-09T11:01:25.174Z,53.26
2024-05-09T11:02:24.214Z,53.27
2024-05-09T11:03:24.117Z,54.93
2024-05-09T11:04:24.127Z,51.87
2024-05-09T11:05:24.157Z,54.82
2024-05-09T11:06:24.042Z,53.98
2024-05-09T11:07:24.117Z,55.62
2024-05-09T11:08:24.028Z,53.57
2024-05-09T11:09:24.017Z,54.94
2024-05-09T11:10:27.617Z,55.04
2024-05-09T11:11:25.118Z,54.28
2024-05-09T11:12:24.923Z,55.11
2024-05-09T11:13:24.032Z,55.12
2024-05-09T11:14:23.994Z,54.10
2024-05-09T11:15:23.993Z,54.89
2024-05-09T11:16:24.063Z,55.02
2024-05-09T11:17:24.100Z,55.20
2024-05-09T11:18:25.104Z,55.50
2024-05-09T11:19:24.087Z,54.94
2024-05-09T11:20:29.509Z,53.08
2024-05-09T11:21:25.041Z,53.22
2024-05-09T11:22:24.028Z,53.42
2024-05-09T11:23:23.971Z,54.41
2024-05-09T11:24:23.923Z,54.11
2024-05-09T11:25:23.969Z,55.78
2024-05-09T11:26:23.902Z,54.88
2024-05-09T11:27:23.951Z,56.25
2024-05-09T11:28:23.907Z,53.21
2024-05-09T11:29:23.887Z,53.49
2024-05-09T11:30:29.964Z,55.96
2024-05-09T11:31:25.053Z,56.05
2024-05-09T11:32:23.940Z,56.72
2024-05-09T11:33:23.963Z,57.44
2024-05-09T11:34:23.934Z,56.02
2024-05-09T11:35:23.877Z,54.46
2024-05-09T11:36:23.885Z,58.70
2024-05-09T11:37:23.938Z,56.20
2024-05-09T11:38:23.877Z,58.26
2024-05-09T11:39:23.886Z,58.30
2024-05-09T11:40:25.825Z,58.51
2024-05-09T11:41:24.899Z,58.46
2024-05-09T11:42:23.858Z,59.37
2024-05-09T11:43:23.993Z,60.27
2024-05-09T11:44:23.855Z,60.78
2024-05-09T11:45:23.854Z,62.55
2024-05-09T11:46:23.990Z,61.73
2024-05-09T11:47:23.975Z,61.99
2024-05-09T11:48:24.019Z,65.24
2024-05-09T11:49:25.444Z,59.96
2024-05-09T11:50:29.918Z,58.91
2024-05-09T11:51:24.838Z,59.12
2024-05-09T11:52:23.899Z,59.83
2024-05-09T11:53:23.843Z,60.46
2024-05-09T11:54:23.812Z,63.68
2024-05-09T11:55:26.820Z,64.71
2024-05-09T11:56:23.803Z,59.16
2024-05-09T11:57:23.814Z,59.59
2024-05-09T11:58:23.963Z,60.09
2024-05-09T11:59:23.811Z,61.70
2024-05-09T12:00:33.192Z,64.63
2024-05-09T12:01:27.482Z,59.05
2024-05-09T12:02:24.001Z,59.08
2024-05-09T12:03:24.294Z,58.32
2024-05-09T12:04:23.989Z,57.29
2024-05-09T12:05:23.882Z,59.13
2024-05-09T12:06:23.728Z,58.33
2024-05-09T12:07:23.944Z,58.95
2024-05-09T12:08:23.721Z,56.27
2024-05-09T12:09:23.711Z,50.11
2024-05-09T12:10:32.089Z,50.00
2024-05-09T12:11:24.737Z,50.03
2024-05-09T12:12:23.715Z,50.14
2024-05-09T12:13:23.768Z,51.15
2024-05-09T12:14:23.642Z,50.37
2024-05-09T12:15:23.641Z,46.61
2024-05-09T12:16:23.834Z,53.38
2024-05-09T12:17:23.695Z,54.40
2024-05-09T12:18:23.644Z,54.59
2024-05-09T12:19:23.653Z,56.56
2024-05-09T12:20:28.899Z,54.20
2024-05-09T12:21:24.654Z,54.25
2024-05-09T12:22:23.620Z,53.85
2024-05-09T12:23:23.585Z,49.70
2024-05-09T12:24:23.554Z,49.84
2024-05-09T12:25:23.638Z,49.49
2024-05-09T12:26:23.543Z,51.48
2024-05-09T12:27:23.523Z,50.86
2024-05-09T12:28:23.615Z,51.23
2024-05-09T12:29:23.494Z,52.32
2024-05-09T12:30:32.803Z,51.85
2024-05-09T12:31:24.549Z,51.85
2024-05-09T12:32:23.550Z,52.04
2024-05-09T12:33:23.598Z,51.66
2024-05-09T12:34:23.526Z,48.05
2024-05-09T12:35:23.463Z,48.18
2024-05-09T12:36:23.442Z,50.95
2024-05-09T12:37:23.462Z,54.22
2024-05-09T12:38:23.467Z,50.24
2024-05-09T12:39:23.435Z,50.73
2024-05-09T12:40:31.816Z,52.42
2024-05-09T12:41:24.394Z,52.59
2024-05-09T12:42:27.407Z,51.61
2024-05-09T12:43:24.465Z,52.43
2024-05-09T12:44:23.379Z,52.59
2024-05-09T12:45:23.350Z,50.66
2024-05-09T12:46:23.557Z,48.90
2024-05-09T12:47:23.352Z,52.30
2024-05-09T12:48:23.362Z,51.95
2024-05-09T12:49:23.550Z,50.99
2024-05-09T12:50:29.933Z,53.48
2024-05-09T12:51:24.276Z,52.83
2024-05-09T12:52:23.375Z,52.95
2024-05-09T12:53:23.233Z,51.81
2024-05-09T12:54:23.229Z,51.67
2024-05-09T12:55:23.254Z,52.84
2024-05-09T12:56:23.197Z,50.65
2024-05-09T12:57:23.212Z,52.32
2024-05-09T12:58:23.310Z,50.00
2024-05-09T12:59:23.192Z,52.78
2024-05-09T13:00:28.253Z,52.17